Time;durP1;ratioP1;P1;durP2;ratioP2;P2;SDS_P1;SDS_P2;PMS_P1;PMS_P2;Temp;Humidity;BMP_temperature;BMP_pressure;BME280_temperature;BME280_humidity;BME280_pressure;Samples;Min_cycle;Max_cycle;Signal;HPM_P1;HPM_P2
2023/02/01 00:01:21;;;;;;;8.15;4.13;;;;;;;-144.31;100.00;58022.63;5008732;28;20629;-57
2023/02/01 00:04:45;;;;;;;8.43;4.38;;;;;;;-144.31;100.00;58022.63;5008799;28;20107;-57
2023/02/01 00:08:08;;;;;;;7.65;5.00;;;;;;;-144.31;100.00;58022.63;5009063;28;20149;-53
2023/02/01 00:11:32;;;;;;;6.85;4.30;;;;;;;-144.31;100.00;58022.63;5008675;28;20049;-57
2023/02/01 00:14:56;;;;;;;8.07;4.07;;;;;;;-144.31;100.00;58022.63;5008282;28;20041;-54
2023/02/01 00:18:20;;;;;;;7.78;4.63;;;;;;;-144.31;100.00;58022.63;5008278;28;20505;-56
2023/02/01 00:21:45;;;;;;;7.32;4.20;;;;;;;-144.31;100.00;58022.63;5008208;28;20560;-52
2023/02/01 00:25:10;;;;;;;6.60;3.78;;;;;;;-144.31;100.00;58022.63;5007819;28;20394;-56
2023/02/01 00:28:34;;;;;;;7.35;4.20;;;;;;;-144.31;100.00;58022.63;5007974;28;20137;-55
2023/02/01 00:31:58;;;;;;;6.68;3.95;;;;;;;-144.31;100.00;58022.63;5005989;28;20052;-51
2023/02/01 00:35:22;;;;;;;8.40;4.50;;;;;;;-144.31;100.00;58022.63;5006484;28;20415;-58
2023/02/01 00:38:47;;;;;;;6.22;4.00;;;;;;;-144.31;100.00;58022.63;5007370;28;20038;-58
2023/02/01 00:42:12;;;;;;;4.90;3.00;;;;;;;-144.31;100.00;58022.63;5007511;28;20045;-53
2023/02/01 00:45:36;;;;;;;7.93;4.10;;;;;;;-144.31;100.00;58022.63;5006954;28;20049;-51
2023/02/01 00:49:00;;;;;;;6.57;3.83;;;;;;;-144.31;100.00;58022.63;4997670;28;20058;-55
2023/02/01 00:52:25;;;;;;;5.65;3.55;;;;;;;-144.31;100.00;58022.63;4998590;28;20427;-51
2023/02/01 00:55:49;;;;;;;6.85;3.85;;;;;;;-144.31;100.00;58022.63;5008167;28;20046;-52
2023/02/01 00:59:13;;;;;;;8.70;4.10;;;;;;;-144.31;100.00;58022.63;4992164;28;20046;-53
2023/02/01 01:01:58;;;;;;;6.35;3.65;;;;;;;-144.31;100.00;58022.63;5021652;28;20478;-55
2023/02/01 01:04:23;;;;;;;8.02;3.47;;;;;;;-144.31;100.00;58022.63;5022915;28;20049;-55
2023/02/01 01:06:49;;;;;;;6.68;3.42;;;;;;;-144.31;100.00;58022.63;5006276;28;20050;-53
2023/02/01 01:09:14;;;;;;;5.53;3.50;;;;;;;-144.31;100.00;58022.63;5022066;28;20044;-53
2023/02/01 01:11:40;;;;;;;7.90;3.70;;;;;;;-144.31;100.00;58022.63;4998205;28;20053;-53
2023/02/01 01:15:05;;;;;;;7.10;3.72;;;;;;;-144.31;100.00;58022.63;5007315;28;20156;-55
2023/02/01 01:18:30;;;;;;;6.43;3.90;;;;;;;-144.31;100.00;58022.63;5003509;28;20038;-54
2023/02/01 01:21:54;;;;;;;5.10;3.20;;;;;;;-144.31;100.00;58022.63;5006503;28;20042;-56
2023/02/01 01:25:18;;;;;;;4.97;3.00;;;;;;;-144.31;100.00;58022.63;4989421;28;20446;-53
2023/02/01 01:28:42;;;;;;;5.35;2.95;;;;;;;-144.31;100.00;58022.63;4989386;28;20046;-57
2023/02/01 01:32:07;;;;;;;5.60;3.50;;;;;;;-144.31;100.00;58022.63;5006626;28;20050;-57
2023/02/01 01:35:31;;;;;;;6.03;3.70;;;;;;;-144.31;100.00;58022.63;5006920;28;20042;-58
2023/02/01 01:38:56;;;;;;;5.55;3.10;;;;;;;-144.31;100.00;58022.63;4994620;28;20046;-53
2023/02/01 01:42:22;;;;;;;5.38;3.22;;;;;;;-144.31;100.00;58022.63;4991475;28;20042;-58
2023/02/01 01:46:20;;;;;;;4.43;2.90;;;;;;;-144.31;100.00;58022.63;5022235;28;20064;-58
2023/02/01 01:49:46;;;;;;;4.38;2.70;;;;;;;-144.31;100.00;58022.63;4994879;28;20643;-53
2023/02/01 01:53:14;;;;;;;5.30;2.90;;;;;;;-144.31;100.00;58022.63;5022082;28;20052;-59
2023/02/01 01:56:41;;;;;;;4.38;2.85;;;;;;;-144.31;100.00;58022.63;5021653;28;20050;-54
2023/02/01 02:00:09;;;;;;;4.80;3.08;;;;;;;-144.31;100.00;58022.63;5005543;28;20052;-57
2023/02/01 02:03:42;;;;;;;3.58;2.50;;;;;;;-144.31;100.00;58022.63;5007075;28;20034;-55
2023/02/01 02:07:24;;;;;;;3.00;2.13;;;;;;;-144.31;100.00;58022.63;4993599;28;20120;-56
2023/02/01 02:11:02;;;;;;;4.80;2.70;;;;;;;-144.31;100.00;58022.63;4997104;28;20046;-58
2023/02/01 02:14:37;;;;;;;4.32;2.72;;;;;;;-144.31;100.00;58022.63;5005133;28;20474;-54
2023/02/01 02:18:27;;;;;;;4.30;2.75;;;;;;;-144.31;100.00;58022.63;4988875;28;20573;-60
2023/02/01 02:22:12;;;;;;;3.60;2.17;;;;;;;-144.31;100.00;58022.63;5005770;28;20045;-52
2023/02/01 02:25:57;;;;;;;4.25;2.65;;;;;;;-144.31;100.00;58022.63;5000197;28;20049;-53
2023/02/01 02:29:45;;;;;;;3.20;1.95;;;;;;;-144.31;100.00;58022.63;5006456;28;20099;-56
2023/02/01 02:33:27;;;;;;;4.85;2.60;;;;;;;-144.31;100.00;58022.63;4997105;28;20731;-57
2023/02/01 02:36:51;;;;;;;4.88;2.85;;;;;;;-144.31;100.00;58022.63;5000706;28;20041;-54
2023/02/01 02:40:52;;;;;;;3.85;2.25;;;;;;;-144.31;100.00;58022.63;4986789;28;20069;-52
2023/02/01 02:48:40;;;;;;;4.20;2.50;;;;;;;-144.31;100.00;58022.63;5021322;28;20069;-57
2023/02/01 03:07:36;;;;;;;4.95;2.83;;;;;;;-144.31;100.00;58022.63;5025212;28;20108;-52
2023/02/01 03:11:08;;;;;;;3.42;2.30;;;;;;;-144.31;100.00;58022.63;5024604;28;20041;-56
2023/02/01 03:14:55;;;;;;;3.75;2.53;;;;;;;-144.31;100.00;58022.63;5020295;28;20129;-56
2023/02/01 03:18:36;;;;;;;4.53;2.72;;;;;;;-144.31;100.00;58022.63;5022383;28;20066;-58
2023/02/01 03:22:06;;;;;;;4.97;2.80;;;;;;;-144.31;100.00;58022.63;4999295;28;20538;-53
2023/02/01 03:25:37;;;;;;;4.13;2.47;;;;;;;-144.31;100.00;58022.63;5008091;28;20048;-51
2023/02/01 03:29:19;;;;;;;5.55;2.70;;;;;;;-144.31;100.00;58022.63;5002398;28;20042;-54
2023/02/01 03:33:00;;;;;;;4.63;2.65;;;;;;;-144.31;100.00;58022.63;5009546;28;20046;-56
2023/02/01 03:36:45;;;;;;;4.13;2.65;;;;;;;-144.31;100.00;58022.63;5008228;28;20053;-53
2023/02/01 03:40:21;;;;;;;6.43;2.95;;;;;;;-144.31;100.00;58022.63;5007810;28;20451;-55
2023/02/01 03:44:10;;;;;;;4.63;2.83;;;;;;;-144.31;100.00;58022.63;5008565;28;20042;-56
2023/02/01 03:47:41;;;;;;;5.32;3.20;;;;;;;-144.31;100.00;58022.63;5000683;28;20052;-55
2023/02/01 03:51:09;;;;;;;7.55;2.92;;;;;;;-144.31;100.00;58022.63;4990516;28;20571;-56
2023/02/01 03:54:37;;;;;;;6.63;2.45;;;;;;;-144.31;100.00;58022.63;5023307;28;20375;-55
2023/02/01 03:58:05;;;;;;;4.85;3.05;;;;;;;-144.31;100.00;58022.63;5007335;28;20141;-56
2023/02/01 04:01:30;;;;;;;5.00;3.10;;;;;;;-144.31;100.00;58022.63;5005102;28;20470;-52
2023/02/01 04:04:55;;;;;;;4.43;3.13;;;;;;;-144.31;100.00;58022.63;5006068;28;20045;-54
2023/02/01 04:08:21;;;;;;;5.35;3.15;;;;;;;-144.31;100.00;58022.63;5007202;28;20080;-56
2023/02/01 04:11:45;;;;;;;6.07;3.45;;;;;;;-144.31;100.00;58022.63;5008349;28;20584;-51
2023/02/01 04:15:09;;;;;;;5.57;3.50;;;;;;;-144.31;100.00;58022.63;5008540;28;20160;-55
2023/02/01 04:18:33;;;;;;;4.05;2.85;;;;;;;-144.31;100.00;58022.63;5008364;28;20078;-55
2023/02/01 04:21:57;;;;;;;4.97;2.85;;;;;;;-144.31;100.00;58022.63;5008008;28;20176;-54
2023/02/01 04:25:21;;;;;;;4.30;2.67;;;;;;;-144.31;100.00;58022.63;5023131;28;20056;-53
2023/02/01 04:28:48;;;;;;;4.07;2.88;;;;;;;-144.31;100.00;58022.63;5023272;28;20783;-52
2023/02/01 04:32:16;;;;;;;5.15;2.97;;;;;;;-144.31;100.00;58022.63;5008090;28;20081;-57
2023/02/01 04:35:40;;;;;;;6.50;2.90;;;;;;;-144.31;100.00;58022.63;5008458;28;20041;-54
2023/02/01 04:39:04;;;;;;;5.15;3.00;;;;;;;-144.31;100.00;58022.63;5007024;28;20121;-55
2023/02/01 04:42:28;;;;;;;3.92;2.88;;;;;;;-144.31;100.00;58022.63;5008086;28;20049;-59
2023/02/01 04:45:52;;;;;;;4.82;3.25;;;;;;;-144.31;100.00;58022.63;5008079;28;20132;-51
2023/02/01 04:49:17;;;;;;;4.68;2.97;;;;;;;-144.31;100.00;58022.63;5008333;28;20049;-54
2023/02/01 04:52:41;;;;;;;5.13;3.08;;;;;;;-144.31;100.00;58022.63;5007982;28;20045;-58
2023/02/01 04:56:06;;;;;;;4.28;2.78;;;;;;;-144.31;100.00;58022.63;5008147;28;20121;-56
2023/02/01 04:59:30;;;;;;;5.30;3.40;;;;;;;-144.31;100.00;58022.63;5007783;28;20038;-55
2023/02/01 05:02:54;;;;;;;4.80;3.00;;;;;;;-144.31;100.00;58022.63;5007962;28;20088;-57
2023/02/01 05:06:17;;;;;;;4.30;2.90;;;;;;;-144.31;100.00;58022.63;5007502;28;20529;-50
2023/02/01 05:09:41;;;;;;;6.38;3.15;;;;;;;-144.31;100.00;58022.63;5007580;28;20041;-52
2023/02/01 05:16:50;;;;;;;5.35;3.47;;;;;;;-144.31;100.00;58022.63;5004225;28;20566;-53
2023/02/01 05:20:14;;;;;;;5.35;3.45;;;;;;;-144.31;100.00;58022.63;5007102;28;20045;-57
2023/02/01 05:27:22;;;;;;;5.38;3.53;;;;;;;-144.31;100.00;58022.63;5021060;28;20046;-54
2023/02/01 05:30:46;;;;;;;5.07;3.28;;;;;;;-144.31;100.00;58022.63;5004412;28;20046;-53
2023/02/01 05:34:09;;;;;;;5.90;3.28;;;;;;;-144.31;100.00;58022.63;5021141;28;20045;-57
2023/02/01 05:37:34;;;;;;;5.68;3.60;;;;;;;-144.31;100.00;58022.63;5007383;28;20033;-53
2023/02/01 05:40:58;;;;;;;5.50;3.58;;;;;;;-144.31;100.00;58022.63;5007013;28;20131;-55
2023/02/01 05:44:22;;;;;;;6.50;3.78;;;;;;;-144.31;100.00;58022.63;5007359;28;20397;-54
2023/02/01 05:47:45;;;;;;;4.22;2.78;;;;;;;-144.31;100.00;58022.63;5006004;28;20125;-55
2023/02/01 05:51:10;;;;;;;6.32;3.80;;;;;;;-144.31;100.00;58022.63;5006404;28;20037;-53
2023/02/01 05:54:34;;;;;;;6.07;3.55;;;;;;;-144.31;100.00;58022.63;5006706;28;20034;-57
2023/02/01 05:57:57;;;;;;;5.70;3.50;;;;;;;-144.31;100.00;58022.63;5006854;28;20069;-54
2023/02/01 06:01:21;;;;;;;5.22;3.55;;;;;;;-144.31;100.00;58022.63;5006280;28;20464;-50
2023/02/01 06:04:45;;;;;;;6.47;3.40;;;;;;;-144.31;100.00;58022.63;5005359;28;20116;-55
2023/02/01 06:08:09;;;;;;;7.53;4.25;;;;;;;-144.31;100.00;58022.63;5006183;28;20037;-52
2023/02/01 06:11:33;;;;;;;6.10;3.78;;;;;;;-144.31;100.00;58022.63;5019983;28;20049;-55
2023/02/01 06:14:58;;;;;;;9.32;4.65;;;;;;;-144.31;100.00;58022.63;5006499;28;20205;-53
2023/02/01 06:18:23;;;;;;;6.38;3.95;;;;;;;-144.31;100.00;58022.63;5006117;28;20644;-54
2023/02/01 06:21:51;;;;;;;6.57;4.03;;;;;;;-144.31;100.00;58022.63;5005604;28;20514;-51
2023/02/01 06:25:16;;;;;;;6.95;4.43;;;;;;;-144.31;100.00;58022.63;5005932;28;20034;-57
2023/02/01 06:28:24;;;;;;;6.80;4.00;;;;;;;-144.31;100.00;58022.63;5006701;28;20081;-54
2023/02/01 06:31:31;;;;;;;5.25;2.85;;;;;;;-144.31;100.00;58022.63;5005847;28;20725;-51
2023/02/01 06:34:02;;;;;;;;;;;;;;;-144.31;100.00;58022.63;5006085;28;20041;-53
2023/02/01 06:36:49;;;;;;;6.97;4.03;;;;;;;-144.31;100.00;58022.63;5008119;28;19917;-54
2023/02/01 06:40:11;;;;;;;6.67;3.50;;;;;;;-144.31;100.00;58022.63;5007142;28;20064;-53
2023/02/01 06:43:37;;;;;;;5.78;3.28;;;;;;;-144.31;100.00;58022.63;5006380;28;20287;-54
2023/02/01 06:47:02;;;;;;;4.85;2.72;;;;;;;-144.31;100.00;58022.63;5006003;28;20064;-56
2023/02/01 06:50:26;;;;;;;5.57;3.50;;;;;;;-144.31;100.00;58022.63;5005941;28;20041;-53
2023/02/01 06:53:50;;;;;;;4.18;2.80;;;;;;;-144.31;100.00;58022.63;5006023;28;20048;-58
2023/02/01 06:57:14;;;;;;;8.45;3.08;;;;;;;-144.31;100.00;58022.63;5006173;28;20038;-56
2023/02/01 07:00:38;;;;;;;6.25;3.60;;;;;;;-144.31;100.00;58022.63;4979959;28;20049;-55
2023/02/01 07:04:02;;;;;;;8.00;3.53;;;;;;;-144.31;100.00;58022.63;5006112;28;20068;-55
2023/02/01 07:07:25;;;;;;;6.47;3.58;;;;;;;-144.31;100.00;58022.63;5006277;28;20044;-54
2023/02/01 07:10:49;;;;;;;6.75;3.40;;;;;;;-144.31;100.00;58022.63;5002524;28;20541;-50
2023/02/01 07:14:13;;;;;;;12.02;4.45;;;;;;;-144.31;100.00;58022.63;5000269;28;20038;-51
2023/02/01 07:17:37;;;;;;;8.68;4.43;;;;;;;-144.31;100.00;58022.63;5001412;28;20513;-54
2023/02/01 07:21:01;;;;;;;10.70;4.78;;;;;;;-144.31;100.00;58022.63;5001687;28;20040;-54
2023/02/01 07:24:26;;;;;;;11.23;4.60;;;;;;;-144.31;100.00;58022.63;5004797;28;20123;-54
2023/02/01 07:27:49;;;;;;;11.38;4.30;;;;;;;-144.31;100.00;58022.63;5005750;28;20038;-51
2023/02/01 07:31:21;;;;;;;9.68;5.28;;;;;;;-144.31;100.00;58022.63;5005801;28;20125;-52
2023/02/01 07:34:48;;;;;;;14.23;4.78;;;;;;;-144.31;100.00;58022.63;5005255;28;20042;-55
2023/02/01 07:38:12;;;;;;;11.95;5.65;;;;;;;-144.31;100.00;58022.63;5005350;28;20038;-53
2023/02/01 07:41:35;;;;;;;8.73;4.40;;;;;;;-144.31;100.00;58022.63;5005452;28;20478;-54
2023/02/01 07:44:59;;;;;;;11.02;5.35;;;;;;;-144.31;100.00;58022.63;5005480;28;20132;-55
2023/02/01 07:48:23;;;;;;;12.50;5.55;;;;;;;-144.31;100.00;58022.63;5009069;28;20426;-56
2023/02/01 07:51:54;;;;;;;9.85;5.75;;;;;;;-144.31;100.00;58022.63;5009024;28;20049;-54
2023/02/01 07:55:17;;;;;;;12.68;5.60;;;;;;;-144.31;100.00;58022.63;5009080;28;20115;-54
2023/02/01 07:58:41;;;;;;;12.30;5.45;;;;;;;-144.31;100.00;58022.63;5021228;28;20130;-55
2023/02/01 08:02:11;;;;;;;8.48;4.55;;;;;;;-144.31;100.00;58022.63;5005243;28;20045;-56
2023/02/01 08:05:36;;;;;;;10.10;5.45;;;;;;;-144.31;100.00;58022.63;5008919;28;20367;-54
2023/02/01 08:09:01;;;;;;;14.80;5.75;;;;;;;-144.31;100.00;58022.63;5008956;28;20077;-53
2023/02/01 08:12:24;;;;;;;13.32;5.68;;;;;;;-144.31;100.00;58022.63;5008462;28;20482;-52
2023/02/01 08:15:49;;;;;;;14.52;5.43;;;;;;;-144.31;100.00;58022.63;5008873;28;20046;-48
2023/02/01 08:19:12;;;;;;;12.10;5.30;;;;;;;-144.31;100.00;58022.63;5009105;28;20176;-52
2023/02/01 08:22:36;;;;;;;12.95;5.97;;;;;;;-144.31;100.00;58022.63;5008482;28;20103;-53
2023/02/01 08:26:10;;;;;;;14.20;6.32;;;;;;;-144.31;100.00;58022.63;5008614;28;20089;-52
2023/02/01 08:29:33;;;;;;;17.40;7.00;;;;;;;-144.31;100.00;58022.63;5008464;28;20045;-51
2023/02/01 08:32:57;;;;;;;13.55;6.75;;;;;;;-144.31;100.00;58022.63;5008593;28;20475;-54
2023/02/01 08:36:21;;;;;;;14.07;4.85;;;;;;;-144.31;100.00;58022.63;5008303;28;20761;-49
2023/02/01 08:39:45;;;;;;;16.08;5.03;;;;;;;-144.31;100.00;58022.63;5008342;28;20029;-54
2023/02/01 08:43:08;;;;;;;14.38;4.82;;;;;;;-144.31;100.00;58022.63;5008165;28;20520;-51
2023/02/01 08:46:31;;;;;;;12.45;5.82;;;;;;;-144.31;100.00;58022.63;5006896;28;20128;-55
2023/02/01 08:49:55;;;;;;;13.20;5.40;;;;;;;-144.31;100.00;58022.63;5008693;28;20045;-53
2023/02/01 08:53:18;;;;;;;19.48;5.95;;;;;;;-144.31;100.00;58022.63;5007879;28;20072;-55
2023/02/01 08:56:43;;;;;;;16.10;5.05;;;;;;;-144.31;100.00;58022.63;5007969;28;20034;-54
2023/02/01 09:00:08;;;;;;;12.52;4.57;;;;;;;-144.31;100.00;58022.63;5008382;28;20046;-56
2023/02/01 09:03:32;;;;;;;12.18;4.93;;;;;;;-144.31;100.00;58022.63;5008063;28;20029;-55
2023/02/01 09:06:59;;;;;;;14.23;4.88;;;;;;;-144.31;100.00;58022.63;5008052;28;20037;-55
2023/02/01 09:10:26;;;;;;;12.77;5.32;;;;;;;-144.31;100.00;58022.63;5007975;28;20064;-55
2023/02/01 09:13:50;;;;;;;12.73;4.53;;;;;;;-144.31;100.00;58022.63;5007913;28;20071;-53
2023/02/01 09:17:13;;;;;;;16.88;4.63;;;;;;;-144.31;100.00;58022.63;5007626;28;20521;-52
2023/02/01 09:20:37;;;;;;;13.18;4.95;;;;;;;-144.31;100.00;58022.63;5007304;28;20441;-53
2023/02/01 09:24:01;;;;;;;15.63;4.70;;;;;;;-144.31;100.00;58022.63;5007544;28;20045;-54
2023/02/01 09:27:25;;;;;;;14.80;5.20;;;;;;;-144.31;100.00;58022.63;5007685;28;20057;-56
2023/02/01 09:30:49;;;;;;;15.52;4.90;;;;;;;-144.31;100.00;58022.63;5006734;28;20509;-57
2023/02/01 09:34:13;;;;;;;11.57;4.88;;;;;;;-144.31;100.00;58022.63;5005899;28;20140;-54
2023/02/01 09:37:37;;;;;;;7.57;3.65;;;;;;;-144.31;100.00;58022.63;5004346;28;20061;-54
2023/02/01 09:40:55;;;;;;;12.73;3.70;;;;;;;-144.31;100.00;58022.63;5004204;28;20742;-54
2023/02/01 09:44:10;;;;;;;13.35;4.00;;;;;;;-144.31;100.00;58022.63;4999258;28;20038;-52
2023/02/01 09:46:56;;;;;;;12.50;3.45;;;;;;;-144.31;100.00;58022.63;5003343;28;20038;-55
2023/02/01 09:50:33;;;;;;;14.25;4.22;;;;;;;-144.31;100.00;58022.63;5004791;28;20573;-52
2023/02/01 09:54:08;;;;;;;16.60;4.60;;;;;;;-144.31;100.00;58022.63;5004419;28;20177;-55
2023/02/01 09:58:00;;;;;;;9.30;3.53;;;;;;;-144.31;100.00;58022.63;5004985;28;20089;-53
2023/02/01 10:01:34;;;;;;;11.85;4.10;;;;;;;-144.31;100.00;58022.63;4980717;28;20054;-52
2023/02/01 10:05:04;;;;;;;7.85;4.07;;;;;;;-144.31;100.00;58022.63;5004810;28;20068;-53
2023/02/01 10:09:04;;;;;;;22.15;4.32;;;;;;;-144.31;100.00;58022.63;5004285;28;20077;-57
2023/02/01 10:12:49;;;;;;;19.63;4.55;;;;;;;-144.31;100.00;58022.63;5003695;28;20386;-55
2023/02/01 10:16:27;;;;;;;14.80;4.65;;;;;;;-144.31;100.00;58022.63;5004553;28;20033;-56
2023/02/01 10:20:10;;;;;;;9.90;3.97;;;;;;;-144.31;100.00;58022.63;5004284;28;20072;-55
2023/02/01 10:24:03;;;;;;;11.32;3.85;;;;;;;-144.31;100.00;58022.63;5003800;28;20112;-54
2023/02/01 10:27:34;;;;;;;13.27;3.75;;;;;;;-144.31;100.00;58022.63;5004814;28;20188;-55
2023/02/01 10:31:02;;;;;;;15.10;3.95;;;;;;;-144.31;100.00;58022.63;5018551;28;20441;-53
2023/02/01 10:34:31;;;;;;;15.15;4.50;;;;;;;-144.31;100.00;58022.63;5003967;28;20065;-54
2023/02/01 10:38:00;;;;;;;18.13;4.65;;;;;;;-144.31;100.00;58022.63;5003255;28;20065;-56
2023/02/01 10:41:28;;;;;;;20.50;4.68;;;;;;;-144.31;100.00;58022.63;5005284;28;20060;-56
2023/02/01 10:44:57;;;;;;;14.85;3.13;;;;;;;-144.31;100.00;58022.63;5003026;28;20095;-57
2023/02/01 10:48:22;;;;;;;12.85;3.25;;;;;;;-144.31;100.00;58022.63;5006401;28;20414;-55
2023/02/01 10:52:00;;;;;;;14.98;3.55;;;;;;;-144.31;100.00;58022.63;5005335;28;20045;-55
2023/02/01 10:55:34;;;;;;;14.48;3.58;;;;;;;-144.31;100.00;58022.63;5005093;28;20049;-51
2023/02/01 10:59:13;;;;;;;12.63;3.33;;;;;;;-144.31;100.00;58022.63;5004970;28;20045;-58
2023/02/01 11:02:39;;;;;;;12.20;3.30;;;;;;;-144.31;100.00;58022.63;5005771;28;20080;-52
2023/02/01 11:06:11;;;;;;;15.23;3.50;;;;;;;-144.31;100.00;58022.63;5006463;28;20049;-53
2023/02/01 11:09:48;;;;;;;8.05;3.35;;;;;;;-144.31;100.00;58022.63;5002678;28;20038;-55
2023/02/01 11:13:33;;;;;;;6.78;2.40;;;;;;;-144.31;100.00;58022.63;5006087;28;20038;-58
2023/02/01 11:17:00;;;;;;;16.02;3.20;;;;;;;-144.31;100.00;58022.63;5010407;28;20040;-57
2023/02/01 11:20:31;;;;;;;11.13;3.20;;;;;;;-144.31;100.00;58022.63;5009186;28;20113;-57
2023/02/01 11:23:55;;;;;;;12.45;3.60;;;;;;;-144.31;100.00;58022.63;5006102;28;20129;-59
2023/02/01 11:27:22;;;;;;;16.92;3.33;;;;;;;-144.31;100.00;58022.63;5009796;28;20376;-58
2023/02/01 11:30:49;;;;;;;17.35;3.85;;;;;;;-144.31;100.00;58022.63;5009718;28;20038;-57
2023/02/01 11:34:20;;;;;;;5.25;1.83;;;;;;;-144.31;100.00;58022.63;5009770;28;20122;-59
2023/02/01 11:37:50;;;;;;;12.10;3.47;;;;;;;-144.31;100.00;58022.63;5011714;28;20411;-52
2023/02/01 11:41:27;;;;;;;15.80;3.67;;;;;;;-144.31;100.00;58022.63;5009755;28;20129;-53
2023/02/01 11:45:12;;;;;;;15.90;3.60;;;;;;;-144.31;100.00;58022.63;5009335;28;20353;-50
2023/02/01 11:48:39;;;;;;;8.48;3.20;;;;;;;-144.31;100.00;58022.63;5008647;28;20104;-53
2023/02/01 11:52:27;;;;;;;15.45;3.08;;;;;;;-144.31;100.00;58022.63;5008794;28;20057;-51
2023/02/01 11:56:08;;;;;;;15.93;3.97;;;;;;;-144.31;100.00;58022.63;5009335;28;20084;-51
2023/02/01 12:00:00;;;;;;;12.95;4.30;;;;;;;-144.31;100.00;58022.63;5009080;28;20037;-54
2023/02/01 12:04:05;;;;;;;11.55;2.67;;;;;;;-144.31;100.00;58022.63;5006189;28;20152;-55
2023/02/01 12:07:41;;;;;;;15.80;4.43;;;;;;;-144.31;100.00;58022.63;5008857;28;20041;-49
2023/02/01 12:11:24;;;;;;;8.82;3.45;;;;;;;-144.31;100.00;58022.63;5000016;28;20046;-50
2023/02/01 12:15:04;;;;;;;7.65;3.28;;;;;;;-144.31;100.00;58022.63;5008847;28;20548;-52
2023/02/01 12:18:52;;;;;;;7.70;2.90;;;;;;;-144.31;100.00;58022.63;5008457;28;20132;-52
2023/02/01 12:22:34;;;;;;;16.83;3.15;;;;;;;-144.31;100.00;58022.63;5005602;28;20053;-53
2023/02/01 12:26:40;;;;;;;11.13;2.78;;;;;;;-144.31;100.00;58022.63;5004619;28;20048;-54
2023/02/01 12:30:07;;;;;;;;;;;;;;;-144.31;100.00;58022.63;5008617;28;20034;-54
2023/02/01 12:33:51;;;;;;;9.32;2.63;;;;;;;-144.31;100.00;58022.63;5008445;28;20317;-54
2023/02/01 12:37:44;;;;;;;10.13;3.28;;;;;;;-144.31;100.00;58022.63;5007868;28;20038;-50
2023/02/01 12:41:26;;;;;;;7.38;2.72;;;;;;;-144.31;100.00;58022.63;5007721;28;20095;-51
2023/02/01 12:45:10;;;;;;;9.13;2.80;;;;;;;-144.31;100.00;58022.63;5006825;28;20073;-52
2023/02/01 12:48:38;;;;;;;12.05;3.33;;;;;;;-144.31;100.00;58022.63;5008337;28;20056;-51
2023/02/01 12:52:13;;;;;;;18.45;3.20;;;;;;;-144.31;100.00;58022.63;5008250;28;20080;-51
2023/02/01 12:56:03;;;;;;;21.50;3.47;;;;;;;-144.31;100.00;58022.63;5007710;28;20042;-53
2023/02/01 12:59:55;;;;;;;13.20;2.92;;;;;;;-144.31;100.00;58022.63;5005602;28;20076;-54
2023/02/01 13:03:22;;;;;;;16.38;3.25;;;;;;;-144.31;100.00;58022.63;5006036;28;20449;-56
2023/02/01 13:07:00;;;;;;;11.65;3.55;;;;;;;-144.31;100.00;58022.63;5007913;28;20042;-55
2023/02/01 13:10:33;;;;;;;13.32;4.03;;;;;;;-144.31;100.00;58022.63;5006479;28;20084;-52
2023/02/01 13:14:03;;;;;;;8.02;3.25;;;;;;;-144.31;100.00;58022.63;5005306;28;20378;-50
2023/02/01 13:17:35;;;;;;;14.32;2.92;;;;;;;-144.31;100.00;58022.63;5004580;28;20045;-52
2023/02/01 13:21:12;;;;;;;7.13;2.58;;;;;;;-144.31;100.00;58022.63;5007186;28;20089;-54
2023/02/01 13:24:46;;;;;;;10.70;3.03;;;;;;;-144.31;100.00;58022.63;5007328;28;20065;-57
2023/02/01 13:28:24;;;;;;;7.00;2.50;;;;;;;-144.31;100.00;58022.63;5006134;28;20077;-53
2023/02/01 13:32:03;;;;;;;16.92;3.58;;;;;;;-144.31;100.00;58022.63;5003721;28;20449;-53
2023/02/01 13:36:00;;;;;;;13.00;3.50;;;;;;;-144.31;100.00;58022.63;5006261;28;20100;-51
2023/02/01 13:39:59;;;;;;;13.90;3.47;;;;;;;-144.31;100.00;58022.63;5016005;28;20450;-52
2023/02/01 13:43:32;;;;;;;5.72;2.65;;;;;;;-144.31;100.00;58022.63;5004446;28;20038;-53
2023/02/01 13:47:09;;;;;;;15.05;2.88;;;;;;;-144.31;100.00;58022.63;5006888;28;20049;-55
2023/02/01 13:50:40;;;;;;;12.48;3.08;;;;;;;-144.31;100.00;58022.63;5006664;28;20049;-50
2023/02/01 13:54:28;;;;;;;11.20;3.47;;;;;;;-144.31;100.00;58022.63;5006453;28;20061;-51
2023/02/01 13:58:00;;;;;;;9.25;3.78;;;;;;;-144.31;100.00;58022.63;4998095;28;20125;-53
2023/02/01 14:01:26;;;;;;;9.05;2.40;;;;;;;-144.31;100.00;58022.63;5003949;28;20398;-48
2023/02/01 14:04:51;;;;;;;19.05;3.63;;;;;;;-144.31;100.00;58022.63;5006982;28;20040;-54
2023/02/01 14:08:37;;;;;;;14.65;3.60;;;;;;;-144.31;100.00;58022.63;5006761;28;20426;-49
2023/02/01 14:12:21;;;;;;;15.18;3.75;;;;;;;-144.31;100.00;58022.63;5003692;28;20049;-53
2023/02/01 14:16:07;;;;;;;15.88;3.38;;;;;;;-144.31;100.00;58022.63;5003745;28;20124;-50
2023/02/01 14:19:32;;;;;;;12.77;3.50;;;;;;;-144.31;100.00;58022.63;4996452;28;20064;-55
2023/02/01 14:23:04;;;;;;;13.10;2.95;;;;;;;-144.31;100.00;58022.63;5002513;28;20686;-48
2023/02/01 14:26:34;;;;;;;13.50;3.35;;;;;;;-144.31;100.00;58022.63;5003830;28;20422;-53
2023/02/01 14:30:04;;;;;;;15.95;3.15;;;;;;;-144.31;100.00;58022.63;5005123;28;20368;-50
2023/02/01 14:33:41;;;;;;;11.18;3.65;;;;;;;-144.31;100.00;58022.63;5020072;28;20128;-51
2023/02/01 14:37:16;;;;;;;14.48;3.88;;;;;;;-144.31;100.00;58022.63;5004338;28;20041;-55
2023/02/01 14:40:40;;;;;;;11.00;2.28;;;;;;;-144.31;100.00;58022.63;5003720;28;20041;-55
2023/02/01 14:44:08;;;;;;;14.02;3.10;;;;;;;-144.31;100.00;58022.63;5004386;28;20137;-52
2023/02/01 14:48:06;;;;;;;14.13;2.97;;;;;;;-144.31;100.00;58022.63;5004023;28;20041;-48
2023/02/01 14:51:31;;;;;;;8.85;3.00;;;;;;;-144.31;100.00;58022.63;5007677;28;20084;-53
2023/02/01 14:55:00;;;;;;;7.38;2.67;;;;;;;-144.31;100.00;58022.63;5008815;28;20041;-49
2023/02/01 14:58:34;;;;;;;11.15;3.80;;;;;;;-144.31;100.00;58022.63;5007298;28;20537;-56
2023/02/01 15:02:00;;;;;;;11.95;4.13;;;;;;;-144.31;100.00;58022.63;5007552;28;20868;-53
2023/02/01 15:05:30;;;;;;;12.88;3.58;;;;;;;-144.31;100.00;58022.63;5008426;28;20108;-52
2023/02/01 15:08:58;;;;;;;11.05;3.80;;;;;;;-144.31;100.00;58022.63;5008887;28;20386;-55
2023/02/01 15:12:26;;;;;;;14.07;3.38;;;;;;;-144.31;100.00;58022.63;5005184;28;20065;-54
2023/02/01 15:16:13;;;;;;;14.90;4.60;;;;;;;-144.31;100.00;58022.63;5008487;28;20117;-50
2023/02/01 15:19:38;;;;;;;11.13;3.05;;;;;;;-144.31;100.00;58022.63;5007299;28;20046;-51
2023/02/01 15:23:04;;;;;;;13.50;3.35;;;;;;;-144.31;100.00;58022.63;5007958;28;20026;-50
2023/02/01 15:26:30;;;;;;;12.43;3.03;;;;;;;-144.31;100.00;58022.63;5007475;28;20144;-49
2023/02/01 15:29:54;;;;;;;;;;;;;;;-144.31;100.00;58022.63;5008093;28;20034;-48
2023/02/01 15:33:34;;;;;;;15.52;3.35;;;;;;;-144.31;100.00;58022.63;5008185;28;19959;-50
2023/02/01 15:37:04;;;;;;;16.30;3.50;;;;;;;-144.31;100.00;58022.63;5008201;28;20038;-48
2023/02/01 15:40:28;;;;;;;9.15;3.55;;;;;;;-144.31;100.00;58022.63;5006702;28;20056;-61
2023/02/01 15:43:55;;;;;;;11.00;3.20;;;;;;;-144.31;100.00;58022.63;5006880;28;20493;-52
2023/02/01 15:47:40;;;;;;;8.48;3.33;;;;;;;-144.31;100.00;58022.63;5007340;28;20478;-54
2023/02/01 15:51:12;;;;;;;5.38;2.75;;;;;;;-144.31;100.00;58022.63;5007039;28;20044;-49
2023/02/01 15:54:52;;;;;;;7.57;3.35;;;;;;;-144.31;100.00;58022.63;5007986;28;20070;-56
2023/02/01 15:58:22;;;;;;;12.40;4.00;;;;;;;-144.31;100.00;58022.63;5006960;28;20041;-55
2023/02/01 16:01:46;;;;;;;11.55;3.72;;;;;;;-144.31;100.00;58022.63;5006672;28;20053;-52
2023/02/01 16:05:25;;;;;;;11.02;3.20;;;;;;;-144.31;100.00;58022.63;5007797;28;20103;-48
2023/02/01 16:08:58;;;;;;;12.25;3.92;;;;;;;-144.31;100.00;58022.63;5024276;28;20057;-51
2023/02/01 16:12:35;;;;;;;7.53;2.80;;;;;;;-144.31;100.00;58022.63;5008583;28;20064;-55